createdAt,value
2023-07-03T00:01:59.813Z,100043.09
2023-07-03T00:04:36.823Z,100035.44
2023-07-03T00:07:07.273Z,100032.38
2023-07-03T00:09:37.057Z,100020.50
2023-07-03T00:12:07.195Z,100009.00
2023-07-03T00:14:36.940Z,100010.09
2023-07-03T00:17:08.914Z,100013.94
2023-07-03T00:19:41.341Z,99998.59
2023-07-03T00:22:11.192Z,99990.81
2023-07-03T00:24:40.924Z,99992.09
2023-07-03T00:27:11.031Z,99979.03
2023-07-03T00:29:40.804Z,99970.78
2023-07-03T00:32:11.535Z,99966.31
2023-07-03T00:34:44.069Z,99953.59
2023-07-03T00:37:15.608Z,99958.16
2023-07-03T00:39:45.574Z,99953.19
2023-07-03T00:42:15.388Z,99947.25
2023-07-03T00:44:45.145Z,99946.72
2023-07-03T00:47:15.561Z,99923.91
2023-07-03T00:49:47.990Z,99932.31
2023-07-03T00:52:18.829Z,99931.59
2023-07-03T00:54:48.693Z,99928.28
2023-07-03T00:57:20.108Z,99921.41
2023-07-03T00:59:49.893Z,99912.00
2023-07-03T01:02:23.436Z,99898.91
2023-07-03T01:04:59.663Z,99890.09
2023-07-03T01:07:31.242Z,99899.25
2023-07-03T01:10:05.050Z,99882.69
2023-07-03T01:12:37.790Z,99886.19
2023-07-03T01:15:13.124Z,99867.09
2023-07-03T01:17:44.778Z,99859.47
2023-07-03T01:20:19.592Z,99868.28
2023-07-03T01:22:53.308Z,99853.53
2023-07-03T01:25:27.806Z,99836.97
2023-07-03T01:28:00.236Z,99838.19
2023-07-03T01:30:31.323Z,99831.06
2023-07-03T01:33:01.860Z,99826.06
2023-07-03T01:35:32.020Z,99816.66
2023-07-03T01:38:02.412Z,99812.63
2023-07-03T01:40:35.220Z,99805.84
2023-07-03T01:43:05.526Z,99801.72
2023-07-03T01:45:37.532Z,99794.00
2023-07-03T01:48:07.886Z,99779.75
2023-07-03T01:50:38.973Z,99770.31
2023-07-03T01:53:12.142Z,99765.53
2023-07-03T01:55:50.642Z,99754.06
2023-07-03T01:58:27.154Z,99742.84
2023-07-03T02:01:00.287Z,99744.88
2023-07-03T02:03:34.965Z,99734.50
2023-07-03T02:06:07.751Z,99729.31
2023-07-03T02:08:37.675Z,99719.13
2023-07-03T02:11:16.649Z,99709.97
2023-07-03T02:13:49.189Z,99702.38
2023-07-03T02:16:19.921Z,99699.06
2023-07-03T02:18:50.751Z,99692.91
2023-07-03T02:21:21.100Z,99684.03
2023-07-03T02:23:51.279Z,99680.63
2023-07-03T02:26:23.690Z,99675.69
2023-07-03T02:28:53.575Z,99671.94
2023-07-03T02:31:23.450Z,99659.53
2023-07-03T02:33:53.252Z,99657.00
2023-07-03T02:36:25.679Z,99647.22
2023-07-03T02:38:55.605Z,99648.19
2023-07-03T02:41:27.969Z,99638.44
2023-07-03T02:43:59.711Z,99628.78
2023-07-03T02:46:32.896Z,99632.41
2023-07-03T02:49:02.732Z,99611.06
2023-07-03T02:51:32.807Z,99614.88
2023-07-03T02:54:07.083Z,99610.34
2023-07-03T02:56:40.548Z,99609.69
2023-07-03T02:59:10.544Z,99606.44
2023-07-03T03:01:40.680Z,99609.81
2023-07-03T03:04:10.696Z,99586.78
2023-07-03T03:06:40.556Z,99585.84
2023-07-03T03:09:10.733Z,99568.22
2023-07-03T03:11:43.894Z,99559.56
2023-07-03T03:14:15.587Z,99552.56
2023-07-03T03:16:45.630Z,99550.38
2023-07-03T03:19:15.396Z,99545.06
2023-07-03T03:21:45.217Z,99532.66
2023-07-03T03:24:15.043Z,99519.50
2023-07-03T03:26:47.482Z,99505.41
2023-07-03T03:29:17.983Z,99490.78
2023-07-03T03:31:47.913Z,99481.16
2023-07-03T03:34:18.000Z,99471.63
2023-07-03T03:36:47.868Z,99468.88
2023-07-03T03:39:17.650Z,99462.09
2023-07-03T03:41:50.506Z,99460.41
2023-07-03T03:44:20.482Z,99441.50
2023-07-03T03:46:51.253Z,99436.31
2023-07-03T03:49:21.127Z,99430.16
2023-07-03T03:51:51.991Z,99422.22
2023-07-03T03:54:22.862Z,99413.19
2023-07-03T03:56:55.361Z,99403.06
2023-07-03T03:59:25.690Z,99391.84
2023-07-03T04:01:55.781Z,99386.75
2023-07-03T04:04:25.696Z,99376.88
2023-07-03T04:06:55.625Z,99372.91
2023-07-03T04:09:25.348Z,99362.91
2023-07-03T04:11:57.621Z,99367.63
2023-07-03T04:14:27.479Z,99349.78
2023-07-03T04:16:58.739Z,99341.00
2023-07-03T04:19:31.393Z,99333.03
2023-07-03T04:22:02.118Z,99324.25
2023-07-03T04:24:31.890Z,99315.34
2023-07-03T04:27:04.582Z,99294.38
2023-07-03T04:29:34.651Z,99272.81
2023-07-03T04:32:04.477Z,99269.31
2023-07-03T04:34:34.329Z,99260.16
2023-07-03T04:37:04.687Z,99242.34
2023-07-03T04:39:34.784Z,99241.38
2023-07-03T04:42:08.935Z,99224.38
2023-07-03T04:44:38.757Z,99221.72
2023-07-03T04:47:09.109Z,99217.75
2023-07-03T04:49:39.188Z,99206.16
2023-07-03T04:52:10.475Z,99200.88
2023-07-03T04:54:40.804Z,99188.31
2023-07-03T04:57:13.666Z,99171.34
2023-07-03T04:59:44.790Z,99165.22
2023-07-03T05:02:18.570Z,99161.34
2023-07-03T05:04:48.589Z,99153.88
2023-07-03T05:07:21.663Z,99148.56
2023-07-03T05:09:51.438Z,99143.97
2023-07-03T05:12:24.060Z,99142.16
2023-07-03T05:14:53.884Z,99141.19
2023-07-03T05:17:23.584Z,99136.09
2023-07-03T05:19:54.331Z,99140.19
2023-07-03T05:22:24.161Z,99135.34
2023-07-03T05:24:54.023Z,99125.56
2023-07-03T05:27:26.418Z,99127.84
2023-07-03T05:29:56.243Z,99124.38
2023-07-03T05:32:26.012Z,99134.59
2023-07-03T05:34:55.810Z,99131.94
2023-07-03T05:37:25.974Z,99126.25
2023-07-03T05:39:56.890Z,99126.13
2023-07-03T05:42:29.392Z,99117.09
2023-07-03T05:44:59.293Z,99108.88
2023-07-03T05:47:29.230Z,99123.34
2023-07-03T05:49:59.387Z,99122.94
2023-07-03T05:52:29.189Z,99114.88
2023-07-03T05:54:59.514Z,99122.69
2023-07-03T05:57:31.801Z,99121.25
2023-07-03T06:00:01.878Z,99133.19
2023-07-03T06:02:31.660Z,99124.94
2023-07-03T06:05:01.510Z,99126.53
2023-07-03T06:07:31.400Z,99131.41
2023-07-03T06:10:01.329Z,99129.50
2023-07-03T06:12:33.726Z,99119.59
2023-07-03T06:15:04.684Z,99126.44
2023-07-03T06:17:34.500Z,99134.53
2023-07-03T06:20:04.331Z,99131.06
2023-07-03T06:22:34.116Z,99136.94
2023-07-03T06:25:03.888Z,99145.34
2023-07-03T06:27:36.319Z,99151.25
2023-07-03T06:30:06.734Z,99140.38
2023-07-03T06:32:36.494Z,99145.69
2023-07-03T06:35:07.154Z,99149.63
2023-07-03T06:37:38.213Z,99155.38
2023-07-03T06:40:10.720Z,99162.38
2023-07-03T06:42:43.215Z,99171.38
2023-07-03T06:45:19.809Z,99180.50
2023-07-03T06:47:49.662Z,99183.09
2023-07-03T06:50:19.530Z,99188.97
2023-07-03T06:52:50.882Z,99210.75
2023-07-03T06:55:20.860Z,99212.75
2023-07-03T06:57:53.156Z,99237.28
2023-07-03T07:00:23.666Z,99240.91
2023-07-03T07:02:53.525Z,99247.81
2023-07-03T07:05:23.440Z,99278.72
2023-07-03T07:07:53.286Z,99276.06
2023-07-03T07:10:25.526Z,99278.72
2023-07-03T07:12:58.004Z,99291.34
2023-07-03T07:15:27.925Z,99300.72
2023-07-03T07:17:57.693Z,99305.47
2023-07-03T07:20:27.621Z,99330.53
2023-07-03T07:22:57.348Z,99340.66
2023-07-03T07:25:27.150Z,99365.38
2023-07-03T07:27:59.613Z,99387.94
2023-07-03T07:30:29.692Z,99419.34
2023-07-03T07:32:59.497Z,99420.97
2023-07-03T07:35:29.355Z,99435.34
2023-07-03T07:37:59.086Z,99445.97
2023-07-03T07:40:28.830Z,99463.44
2023-07-03T07:43:01.215Z,99498.66
2023-07-03T07:45:31.309Z,99510.72
2023-07-03T07:48:01.155Z,99545.41
2023-07-03T07:50:31.838Z,99557.09
2023-07-03T07:53:01.671Z,99601.53
2023-07-03T07:55:31.629Z,99620.72
2023-07-03T07:58:04.001Z,99638.75
2023-07-03T08:00:35.880Z,99655.19
2023-07-03T08:03:09.516Z,99667.03
2023-07-03T08:05:40.209Z,99684.75
2023-07-03T08:08:10.056Z,99746.81
2023-07-03T08:10:39.726Z,99842.53
2023-07-03T08:13:12.106Z,99845.50
2023-07-03T08:15:41.867Z,99811.97
2023-07-03T08:18:11.836Z,99785.13
2023-07-03T08:20:41.651Z,99798.88
2023-07-03T08:23:11.400Z,99810.50
2023-07-03T08:25:41.228Z,99834.84
2023-07-03T08:28:13.947Z,99813.47
2023-07-03T08:30:43.767Z,99831.41
2023-07-03T08:33:13.613Z,99847.97
2023-07-03T08:38:16.504Z,99875.81
2023-07-03T08:40:46.403Z,99867.09
2023-07-03T08:43:22.322Z,99856.44
2023-07-03T08:45:53.361Z,99859.38
2023-07-03T08:48:25.241Z,99836.00
2023-07-03T08:50:57.191Z,99852.44
2023-07-03T08:53:30.635Z,99894.13
2023-07-03T08:56:05.076Z,99905.53
2023-07-03T08:58:37.501Z,99924.19
2023-07-03T09:01:10.887Z,99926.31
2023-07-03T09:03:49.025Z,99931.16
2023-07-03T09:06:23.378Z,99929.94
2023-07-03T09:08:59.988Z,99945.56
2023-07-03T09:11:30.534Z,99959.19
2023-07-03T09:14:04.694Z,99970.31
2023-07-03T09:16:34.928Z,99978.09
2023-07-03T09:19:07.104Z,99988.28
2023-07-03T09:21:38.313Z,100021.88
2023-07-03T09:24:13.756Z,100058.97
2023-07-03T09:26:47.975Z,100095.88
2023-07-03T09:29:20.856Z,100120.69
2023-07-03T09:31:51.002Z,100135.97
2023-07-03T09:34:20.843Z,100154.09
2023-07-03T09:37:00.301Z,100171.56
2023-07-03T09:39:30.580Z,100196.34
2023-07-03T09:42:09.095Z,100207.78
2023-07-03T09:44:44.592Z,100205.50
2023-07-03T09:47:20.980Z,100205.59
2023-07-03T09:49:51.000Z,100200.25
2023-07-03T09:52:20.846Z,100208.13
2023-07-03T09:54:51.137Z,100211.38
2023-07-03T09:57:27.952Z,100211.34
2023-07-03T10:00:16.043Z,100224.06
2023-07-03T10:07:53.395Z,100259.22
2023-07-03T10:13:01.075Z,100270.03
2023-07-03T10:15:37.245Z,100267.88
2023-07-03T10:18:09.835Z,100270.34
2023-07-03T10:20:45.214Z,100260.72
2023-07-03T10:23:20.111Z,100269.16
2023-07-03T10:25:54.723Z,100274.66
2023-07-03T10:28:27.731Z,100282.06
2023-07-03T10:31:02.990Z,100276.06
2023-07-03T10:33:36.489Z,100290.28
2023-07-03T10:36:09.233Z,100300.94
2023-07-03T10:38:44.977Z,100306.56
2023-07-03T10:41:18.857Z,100300.09
2023-07-03T10:43:54.169Z,100312.28
2023-07-03T10:46:31.165Z,100302.03
2023-07-03T10:49:04.346Z,100300.91
2023-07-03T10:51:41.163Z,100310.00
2023-07-03T10:54:15.092Z,100303.28
2023-07-03T10:56:49.017Z,100297.78
2023-07-03T10:59:23.801Z,100297.69
2023-07-03T11:02:03.796Z,100304.41
2023-07-03T11:04:41.081Z,100316.72
2023-07-03T11:07:17.416Z,100303.72
2023-07-03T11:09:55.398Z,100304.97
2023-07-03T11:12:30.264Z,100313.34
2023-07-03T11:15:15.082Z,100312.41
2023-07-03T11:23:16.100Z,100324.47
2023-07-03T11:28:31.112Z,100330.22
2023-07-03T11:31:02.970Z,100333.25
2023-07-03T11:36:09.853Z,100327.75
2023-07-03T11:43:51.824Z,100300.56
2023-07-03T11:46:25.682Z,100287.19
2023-07-03T11:49:02.434Z,100275.94
2023-07-03T11:51:39.603Z,100284.22
2023-07-03T11:54:21.555Z,100277.91
2023-07-03T11:56:57.264Z,100293.81
2023-07-03T11:59:35.951Z,100282.41
2023-07-03T12:02:48.258Z,100275.09
2023-07-03T12:05:48.649Z,100291.00
2023-07-03T12:08:48.842Z,100274.97
2023-07-03T12:11:19.990Z,100280.94
2023-07-03T12:13:53.171Z,100274.41
2023-07-03T12:16:28.943Z,100271.63
2023-07-03T12:19:00.791Z,100272.25
2023-07-03T12:21:37.286Z,100262.06
2023-07-03T12:24:25.932Z,100270.19
2023-07-03T12:27:01.786Z,100267.03
2023-07-03T12:29:32.213Z,100273.66
2023-07-03T12:32:07.113Z,100291.91
2023-07-03T12:34:38.266Z,100287.78
2023-07-03T12:37:11.158Z,100294.09
2023-07-03T12:39:45.731Z,100287.69
2023-07-03T12:42:18.604Z,100278.63
2023-07-03T12:44:48.454Z,100267.34
2023-07-03T12:47:19.922Z,100254.63
2023-07-03T12:49:55.286Z,100268.47
2023-07-03T12:52:25.718Z,100244.91
2023-07-03T12:55:14.072Z,100255.91
2023-07-03T12:57:45.663Z,100257.66
2023-07-03T13:00:21.355Z,100263.72
2023-07-03T13:02:51.153Z,100262.63
2023-07-03T13:05:24.567Z,100252.38
2023-07-03T13:07:54.949Z,100255.34
2023-07-03T13:10:27.731Z,100257.44
2023-07-03T13:13:08.658Z,100256.03
2023-07-03T13:15:39.800Z,100248.84
2023-07-03T13:18:12.584Z,100258.38
2023-07-03T13:20:43.184Z,100264.97
2023-07-03T13:23:13.262Z,100257.66
2023-07-03T13:25:53.953Z,100260.59
2023-07-03T13:28:27.717Z,100249.84
2023-07-03T13:31:13.219Z,100241.69
2023-07-03T13:33:44.595Z,100247.66
2023-07-03T13:36:26.478Z,100236.56
2023-07-03T13:39:03.891Z,100249.56
2023-07-03T13:41:36.607Z,100271.25
2023-07-03T13:44:08.796Z,100261.81
2023-07-03T13:46:39.934Z,100280.28
2023-07-03T13:49:10.269Z,100269.47
2023-07-03T13:51:41.936Z,100262.84
2023-07-03T13:54:13.366Z,100258.75
2023-07-03T13:56:46.593Z,100273.72
2023-07-03T13:59:16.867Z,100253.13
2023-07-03T14:01:47.229Z,100273.13
2023-07-03T14:04:17.059Z,100272.28
2023-07-03T14:06:47.593Z,100256.81
2023-07-03T14:09:17.334Z,100267.78
2023-07-03T14:11:49.708Z,100274.44
2023-07-03T14:14:19.563Z,100276.25
2023-07-03T14:16:50.547Z,100261.03
2023-07-03T14:19:20.588Z,100264.25
2023-07-03T14:21:50.785Z,100271.34
2023-07-03T14:24:20.710Z,100268.22
2023-07-03T14:26:53.105Z,100274.22
2023-07-03T14:29:22.959Z,100274.56
2023-07-03T14:31:52.785Z,100269.75
2023-07-03T14:34:22.591Z,100270.59
2023-07-03T14:36:52.496Z,100267.06
2023-07-03T14:39:22.243Z,100280.28
2023-07-03T14:41:56.027Z,100274.09
2023-07-03T14:44:25.950Z,100279.59
2023-07-03T14:46:57.001Z,100278.00
2023-07-03T14:49:26.918Z,100276.91
2023-07-03T14:51:57.093Z,100263.09
2023-07-03T14:54:27.531Z,100258.06
2023-07-03T14:56:59.976Z,100270.91
2023-07-03T14:59:29.821Z,100269.75
2023-07-03T15:01:59.666Z,100270.31
2023-07-03T15:04:29.998Z,100281.03
2023-07-03T15:06:59.888Z,100282.31
2023-07-03T15:09:29.622Z,100278.19
2023-07-03T15:12:02.013Z,100265.38
2023-07-03T15:14:31.848Z,100265.69
2023-07-03T15:17:02.480Z,100261.88
2023-07-03T15:19:32.547Z,100261.31
2023-07-03T15:22:02.509Z,100259.88
2023-07-03T15:24:32.241Z,100247.63
2023-07-03T15:27:06.320Z,100258.19
2023-07-03T15:29:36.181Z,100256.50
2023-07-03T15:32:05.942Z,100256.06
2023-07-03T15:34:35.725Z,100260.03
2023-07-03T15:37:05.529Z,100249.31
2023-07-03T15:39:35.326Z,100240.56
2023-07-03T15:42:07.966Z,100241.13
2023-07-03T15:44:37.772Z,100239.72
2023-07-03T15:47:09.182Z,100231.97
2023-07-03T15:49:39.417Z,100243.25
2023-07-03T15:52:10.784Z,100240.72
2023-07-03T15:54:40.628Z,100241.56
2023-07-03T15:57:12.960Z,100239.88
2023-07-03T15:59:42.821Z,100234.81
2023-07-03T16:02:12.599Z,100229.44
2023-07-03T16:04:45.625Z,100234.94
2023-07-03T16:07:15.554Z,100229.00
2023-07-03T16:09:45.480Z,100240.97
2023-07-03T16:12:17.913Z,100245.34
2023-07-03T16:14:49.072Z,100239.88
2023-07-03T16:17:19.184Z,100233.94
2023-07-03T16:20:09.753Z,100242.97
2023-07-03T16:22:40.661Z,100232.53
2023-07-03T16:25:11.365Z,100232.53
2023-07-03T16:27:43.952Z,100227.03
2023-07-03T16:30:14.435Z,100243.66
2023-07-03T16:32:44.236Z,100225.94
2023-07-03T16:35:13.976Z,100220.97
2023-07-03T16:37:43.758Z,100220.97
2023-07-03T16:40:14.537Z,100214.91
2023-07-03T16:42:47.026Z,100216.16
2023-07-03T16:45:17.562Z,100216.91
2023-07-03T16:47:47.306Z,100217.31
2023-07-03T16:50:17.345Z,100220.97
2023-07-03T16:52:47.571Z,100217.59
2023-07-03T16:55:17.556Z,100212.94
2023-07-03T16:57:50.099Z,100220.13
2023-07-03T17:00:20.266Z,100215.06
2023-07-03T17:02:50.149Z,100209.13
2023-07-03T17:05:19.963Z,100210.13
2023-07-03T17:07:49.707Z,100214.91
2023-07-03T17:10:19.541Z,100214.78
2023-07-03T17:12:52.173Z,100215.88
2023-07-03T17:15:23.245Z,100209.28
2023-07-03T17:17:53.083Z,100210.94
2023-07-03T17:20:23.050Z,100202.88
2023-07-03T17:22:52.780Z,100208.81
2023-07-03T17:25:22.565Z,100208.09
2023-07-03T17:27:54.885Z,100198.63
2023-07-03T17:30:24.704Z,100194.00
2023-07-03T17:32:54.534Z,100201.78
2023-07-03T17:35:24.343Z,100193.59
2023-07-03T17:37:54.234Z,100197.41
2023-07-03T17:40:23.973Z,100191.19
2023-07-03T17:42:56.549Z,100199.41
2023-07-03T17:45:26.327Z,100189.38
2023-07-03T17:47:56.097Z,100201.75
2023-07-03T17:50:25.924Z,100186.81
2023-07-03T17:52:55.672Z,100188.06
2023-07-03T17:55:26.556Z,100185.94
2023-07-03T17:57:58.934Z,100189.75
2023-07-03T18:00:28.796Z,100187.63
2023-07-03T18:03:00.354Z,100179.28
2023-07-03T18:05:30.636Z,100178.03
2023-07-03T18:08:00.447Z,100189.16
2023-07-03T18:10:32.220Z,100183.22
2023-07-03T18:13:04.777Z,100186.31
2023-07-03T18:15:47.214Z,100199.97
2023-07-03T18:18:20.903Z,100179.41
2023-07-03T18:20:51.009Z,100184.06
2023-07-03T18:23:21.370Z,100188.81
2023-07-03T18:25:52.085Z,100183.75
2023-07-03T18:28:24.821Z,100181.91
2023-07-03T18:31:01.308Z,100182.16
2023-07-03T18:33:33.306Z,100185.00
2023-07-03T18:36:04.752Z,100178.78
2023-07-03T18:38:35.583Z,100188.94
2023-07-03T18:41:06.971Z,100187.25
2023-07-03T18:43:39.378Z,100184.69
2023-07-03T18:46:09.671Z,100193.00
2023-07-03T18:48:40.336Z,100195.66
2023-07-03T18:51:14.937Z,100201.16
2023-07-03T18:53:45.320Z,100203.66
2023-07-03T18:56:17.148Z,100194.94
2023-07-03T18:58:49.564Z,100187.13
2023-07-03T19:01:20.895Z,100192.75
2023-07-03T19:03:51.274Z,100198.09
2023-07-03T19:06:23.489Z,100182.19
2023-07-03T19:08:53.258Z,100184.13
2023-07-03T19:11:23.035Z,100185.25
2023-07-03T19:13:56.110Z,100182.88
2023-07-03T19:16:26.181Z,100179.44
2023-07-03T19:18:56.490Z,100170.03
2023-07-03T19:21:26.263Z,100168.56
2023-07-03T19:23:58.551Z,100181.25
2023-07-03T19:26:30.557Z,100170.97
2023-07-03T19:29:02.929Z,100163.91
2023-07-03T19:31:32.937Z,100163.31
2023-07-03T19:34:05.212Z,100181.19
2023-07-03T19:36:35.208Z,100169.06
2023-07-03T19:39:05.010Z,100171.88
2023-07-03T19:41:34.775Z,100171.16
2023-07-03T19:44:07.213Z,100167.19
2023-07-03T19:46:37.064Z,100170.13
2023-07-03T19:49:06.890Z,100177.53
2023-07-03T19:51:36.771Z,100165.31
2023-07-03T19:54:07.338Z,100172.00
2023-07-03T19:56:37.310Z,100182.13
2023-07-03T19:59:10.984Z,100168.06
2023-07-03T20:01:40.861Z,100177.16
2023-07-03T20:04:10.622Z,100181.78
2023-07-03T20:06:40.477Z,100169.56
2023-07-03T20:09:10.239Z,100180.38
2023-07-03T20:11:40.190Z,100175.13
2023-07-03T20:14:12.673Z,100171.88
2023-07-03T20:16:44.063Z,100174.84
2023-07-03T20:19:14.604Z,100161.09
2023-07-03T20:21:44.397Z,100166.81
2023-07-03T20:24:14.629Z,100167.09
2023-07-03T20:26:44.446Z,100162.00
2023-07-03T20:29:16.903Z,100173.06
2023-07-03T20:31:46.743Z,100166.19
2023-07-03T20:34:16.604Z,100170.06
2023-07-03T20:36:46.363Z,100168.50
2023-07-03T20:39:16.143Z,100173.22
2023-07-03T20:41:46.013Z,100176.16
2023-07-03T20:44:18.529Z,100169.13
2023-07-03T20:46:49.168Z,100177.28
2023-07-03T20:49:19.202Z,100179.19
2023-07-03T20:51:53.920Z,100183.84
2023-07-03T20:54:34.444Z,100185.78
2023-07-03T20:57:05.440Z,100195.63
2023-07-03T20:59:38.938Z,100203.75
2023-07-03T21:02:09.743Z,100204.72
2023-07-03T21:04:40.930Z,100202.56
2023-07-03T21:07:10.755Z,100214.31
2023-07-03T21:09:41.164Z,100213.47
2023-07-03T21:12:11.433Z,100224.53
2023-07-03T21:14:43.969Z,100225.75
2023-07-03T21:17:13.837Z,100225.16
2023-07-03T21:19:44.079Z,100229.88
2023-07-03T21:22:13.892Z,100224.66
2023-07-03T21:24:43.710Z,100236.44
2023-07-03T21:27:13.586Z,100222.72
2023-07-03T21:29:46.442Z,100238.88
2023-07-03T21:32:18.264Z,100240.06
2023-07-03T21:34:51.415Z,100235.00
2023-07-03T21:37:21.883Z,100231.72
2023-07-03T21:39:51.759Z,100231.91
2023-07-03T21:42:21.578Z,100234.00
2023-07-03T21:44:53.997Z,100237.84
2023-07-03T21:47:23.893Z,100236.28
2023-07-03T21:49:53.768Z,100233.97
2023-07-03T21:52:23.554Z,100235.78
2023-07-03T21:54:53.365Z,100228.91
2023-07-03T21:57:23.207Z,100222.00
2023-07-03T21:59:55.609Z,100224.66
2023-07-03T22:02:26.291Z,100228.53
2023-07-03T22:04:56.308Z,100223.31
2023-07-03T22:07:26.076Z,100227.81
2023-07-03T22:09:55.845Z,100224.28
2023-07-03T22:12:25.917Z,100218.22
2023-07-03T22:14:58.234Z,100218.44
2023-07-03T22:17:28.111Z,100220.28
2023-07-03T22:19:57.817Z,100225.72
2023-07-03T22:22:27.979Z,100205.38
2023-07-03T22:24:57.783Z,100217.72
2023-07-03T22:27:27.627Z,100210.00
2023-07-03T22:30:00.329Z,100204.75
2023-07-03T22:32:30.758Z,100205.59
2023-07-03T22:35:00.626Z,100207.31
2023-07-03T22:37:30.413Z,100194.09
2023-07-03T22:40:00.198Z,100195.19
2023-07-03T22:42:29.995Z,100195.19
2023-07-03T22:45:02.359Z,100188.88
2023-07-03T22:47:32.682Z,100178.47
2023-07-03T22:50:04.126Z,100181.00
2023-07-03T22:52:34.490Z,100165.88
2023-07-03T22:55:05.686Z,100171.19
2023-07-03T22:57:36.749Z,100166.13
2023-07-03T23:00:12.205Z,100166.00
2023-07-03T23:02:42.403Z,100174.69
2023-07-03T23:05:13.792Z,100162.59
2023-07-03T23:07:43.744Z,100175.81
2023-07-03T23:10:14.946Z,100177.72
2023-07-03T23:12:44.768Z,100170.81
2023-07-03T23:15:17.268Z,100172.03
2023-07-03T23:17:47.367Z,100175.69
2023-07-03T23:20:17.582Z,100175.78
2023-07-03T23:22:47.410Z,100168.75
2023-07-03T23:25:17.371Z,100184.28
2023-07-03T23:27:47.427Z,100184.34
2023-07-03T23:30:20.045Z,100174.78
2023-07-03T23:32:50.119Z,100164.38
2023-07-03T23:35:20.051Z,100166.66
2023-07-03T23:37:49.782Z,100161.47
2023-07-03T23:40:19.929Z,100165.19
2023-07-03T23:42:50.919Z,100161.81
2023-07-03T23:45:23.261Z,100154.06
2023-07-03T23:47:53.217Z,100174.75
2023-07-03T23:50:23.045Z,100155.25
2023-07-03T23:52:54.241Z,100144.00
2023-07-03T23:55:24.143Z,100135.03
2023-07-03T23:57:53.851Z,100122.06
